RYR55TR EGKK-EBBR
Flight info
| Callsign | RYR55TR |
|---|---|
| Flight time | 0h 38m |
| Altitude | 23000 |
| Route | DVR L18 VABIK Q70 KOK |
| Aircraft | B738/M-SDE2E3FGHIRWXY/LB1 |
Departure
| Time | 2026-05-07 19:40 |
|---|---|
| Airport | London Gatwick Airport (EGKK) |
Arrival
| Time | 2026-05-07 20:18 |
|---|---|
| Airport | Brussels Airport (EBBR) |
| Time | Latitude | Longitude | Altitude | Speed | Heading |
|---|---|---|---|---|---|
| 2026-05-07 19:16 | 51.15833 | -0.17634 | 210 ft | 0 kts | 347° |
| 2026-05-07 19:27 | 51.15817 | -0.17628 | 197 ft | 2 kts | 346° |
| 2026-05-07 19:27 | 51.15801 | -0.17622 | 222 ft | 2 kts | 345° |
| 2026-05-07 19:27 | 51.15785 | -0.17615 | 210 ft | 2 kts | 343° |
| 2026-05-07 19:28 | 51.15769 | -0.17606 | 214 ft | 2 kts | 336° |
| 2026-05-07 19:28 | 51.15755 | -0.17593 | 212 ft | 2 kts | 301° |
| 2026-05-07 19:28 | 51.15753 | -0.17577 | 216 ft | 0 kts | 257° |
| 2026-05-07 19:28 | 51.15753 | -0.17576 | 216 ft | 0 kts | 257° |
| 2026-05-07 19:31 | 51.15741 | -0.17667 | 210 ft | 14 kts | 258° |
| 2026-05-07 19:32 | 51.15720 | -0.17817 | 213 ft | 14 kts | 259° |
| 2026-05-07 19:32 | 51.15700 | -0.17961 | 208 ft | 13 kts | 257° |
| 2026-05-07 19:32 | 51.15680 | -0.18108 | 206 ft | 15 kts | 258° |
| 2026-05-07 19:32 | 51.15656 | -0.18274 | 207 ft | 15 kts | 256° |
| 2026-05-07 19:33 | 51.15634 | -0.18435 | 204 ft | 14 kts | 258° |
| 2026-05-07 19:33 | 51.15613 | -0.18594 | 210 ft | 18 kts | 256° |
| 2026-05-07 19:33 | 51.15582 | -0.18784 | 207 ft | 17 kts | 245° |
| 2026-05-07 19:33 | 51.15472 | -0.18806 | 204 ft | 17 kts | 168° |
| 2026-05-07 19:34 | 51.15360 | -0.18767 | 204 ft | 16 kts | 167° |
| 2026-05-07 19:34 | 51.15252 | -0.18726 | 210 ft | 16 kts | 166° |
| 2026-05-07 19:34 | 51.15149 | -0.18720 | 209 ft | 15 kts | 214° |
| 2026-05-07 19:34 | 51.15105 | -0.18863 | 205 ft | 14 kts | 268° |
| 2026-05-07 19:35 | 51.15091 | -0.19018 | 204 ft | 14 kts | 256° |
| 2026-05-07 19:35 | 51.15066 | -0.19163 | 206 ft | 13 kts | 259° |
| 2026-05-07 19:35 | 51.15051 | -0.19303 | 206 ft | 13 kts | 258° |
| 2026-05-07 19:35 | 51.15031 | -0.19439 | 206 ft | 12 kts | 262° |
| 2026-05-07 19:36 | 51.15013 | -0.19593 | 210 ft | 16 kts | 257° |
| 2026-05-07 19:36 | 51.14989 | -0.19762 | 204 ft | 15 kts | 258° |
| 2026-05-07 19:36 | 51.14967 | -0.19926 | 209 ft | 15 kts | 258° |
| 2026-05-07 19:36 | 51.14946 | -0.20083 | 204 ft | 14 kts | 259° |
| 2026-05-07 19:37 | 51.14926 | -0.20234 | 208 ft | 14 kts | 256° |
| 2026-05-07 19:37 | 51.14905 | -0.20376 | 204 ft | 13 kts | 257° |
| 2026-05-07 19:37 | 51.14867 | -0.20657 | 209 ft | 30 kts | 257° |
| 2026-05-07 19:37 | 51.14831 | -0.20908 | 206 ft | 19 kts | 257° |
| 2026-05-07 19:38 | 51.14803 | -0.21107 | 208 ft | 18 kts | 257° |
| 2026-05-07 19:38 | 51.14768 | -0.21295 | 206 ft | 17 kts | 258° |
| 2026-05-07 19:38 | 51.14690 | -0.21393 | 208 ft | 17 kts | 159° |
| 2026-05-07 19:38 | 51.14627 | -0.21334 | 206 ft | 0 kts | 162° |
| 2026-05-07 19:39 | 51.14574 | -0.21306 | 207 ft | 23 kts | 158° |
| 2026-05-07 19:40 | 51.14533 | -0.21077 | 206 ft | 30 kts | 78° |
| 2026-05-07 19:40 | 51.14625 | -0.20405 | 208 ft | 100 kts | 76° |
| 2026-05-07 19:40 | 51.14827 | -0.18955 | 262 ft | 160 kts | 77° |
| 2026-05-07 19:40 | 51.15098 | -0.17131 | 824 ft | 177 kts | 77° |
| 2026-05-07 19:41 | 51.15393 | -0.15199 | 1715 ft | 180 kts | 80° |
| 2026-05-07 19:41 | 51.15633 | -0.13266 | 2614 ft | 177 kts | 79° |
| 2026-05-07 19:41 | 51.15882 | -0.11257 | 3074 ft | 197 kts | 79° |
| 2026-05-07 19:41 | 51.16163 | -0.09018 | 3402 ft | 212 kts | 79° |
| 2026-05-07 19:42 | 51.16461 | -0.06675 | 3928 ft | 218 kts | 79° |
| 2026-05-07 19:42 | 51.16774 | -0.04255 | 4433 ft | 230 kts | 78° |
| 2026-05-07 19:42 | 51.17113 | -0.01661 | 4785 ft | 250 kts | 78° |
| 2026-05-07 19:42 | 51.17471 | 0.01068 | 5418 ft | 254 kts | 79° |
| 2026-05-07 19:43 | 51.17833 | 0.03825 | 6172 ft | 256 kts | 79° |
| 2026-05-07 19:43 | 51.18201 | 0.06634 | 6833 ft | 262 kts | 78° |
| 2026-05-07 19:43 | 51.18422 | 0.09547 | 7432 ft | 268 kts | 94° |
| 2026-05-07 19:43 | 51.18219 | 0.12512 | 8106 ft | 272 kts | 98° |
| 2026-05-07 19:44 | 51.17991 | 0.15522 | 8782 ft | 276 kts | 97° |
| 2026-05-07 19:44 | 51.17773 | 0.18592 | 9438 ft | 281 kts | 97° |
| 2026-05-07 19:44 | 51.17566 | 0.21723 | 10068 ft | 286 kts | 97° |
| 2026-05-07 19:44 | 51.17364 | 0.24886 | 10740 ft | 287 kts | 97° |
| 2026-05-07 19:45 | 51.17165 | 0.28058 | 11411 ft | 289 kts | 97° |
| 2026-05-07 19:45 | 51.16964 | 0.31261 | 12083 ft | 291 kts | 97° |
| 2026-05-07 19:45 | 51.16815 | 0.34495 | 12748 ft | 295 kts | 92° |
| 2026-05-07 19:45 | 51.16823 | 0.37777 | 13428 ft | 297 kts | 91° |
| 2026-05-07 19:46 | 51.16845 | 0.41086 | 14033 ft | 300 kts | 91° |
| 2026-05-07 19:46 | 51.16852 | 0.44391 | 14590 ft | 304 kts | 91° |
| 2026-05-07 19:46 | 51.16851 | 0.47772 | 15137 ft | 309 kts | 91° |
| 2026-05-07 19:46 | 51.16842 | 0.51301 | 15290 ft | 328 kts | 91° |
| 2026-05-07 19:47 | 51.16830 | 0.55034 | 15458 ft | 346 kts | 91° |
| 2026-05-07 19:47 | 51.16815 | 0.58964 | 15745 ft | 359 kts | 91° |
| 2026-05-07 19:47 | 51.16801 | 0.62981 | 16290 ft | 365 kts | 91° |
| 2026-05-07 19:47 | 51.16785 | 0.67035 | 16933 ft | 367 kts | 91° |
| 2026-05-07 19:48 | 51.16768 | 0.71122 | 17549 ft | 371 kts | 91° |
| 2026-05-07 19:48 | 51.16749 | 0.75249 | 18147 ft | 375 kts | 91° |
| 2026-05-07 19:48 | 51.16728 | 0.79455 | 18409 ft | 388 kts | 92° |
| 2026-05-07 19:48 | 51.16650 | 0.83822 | 18529 ft | 400 kts | 94° |
| 2026-05-07 19:49 | 51.16508 | 0.88306 | 18716 ft | 409 kts | 94° |
| 2026-05-07 19:49 | 51.16342 | 0.92867 | 19111 ft | 414 kts | 95° |
| 2026-05-07 19:49 | 51.16171 | 0.97471 | 19531 ft | 419 kts | 94° |
| 2026-05-07 19:49 | 51.16003 | 1.02137 | 19936 ft | 424 kts | 94° |
| 2026-05-07 19:50 | 51.15839 | 1.06776 | 20403 ft | 426 kts | 94° |
| 2026-05-07 19:50 | 51.15677 | 1.11495 | 20882 ft | 428 kts | 94° |
| 2026-05-07 19:50 | 51.15514 | 1.16249 | 21335 ft | 431 kts | 94° |
| 2026-05-07 19:50 | 51.15349 | 1.21031 | 21764 ft | 434 kts | 94° |
| 2026-05-07 19:51 | 51.15183 | 1.25857 | 22185 ft | 437 kts | 94° |
| 2026-05-07 19:51 | 51.15013 | 1.30702 | 22612 ft | 440 kts | 94° |
| 2026-05-07 19:51 | 51.14840 | 1.35595 | 23015 ft | 443 kts | 94° |
| 2026-05-07 19:51 | 51.14663 | 1.40532 | 23061 ft | 450 kts | 94° |
| 2026-05-07 19:52 | 51.14483 | 1.45489 | 23073 ft | 447 kts | 94° |
| 2026-05-07 19:52 | 51.14303 | 1.50417 | 23064 ft | 443 kts | 94° |
| 2026-05-07 19:52 | 51.14122 | 1.55301 | 23075 ft | 443 kts | 94° |
| 2026-05-07 19:52 | 51.13940 | 1.60146 | 23085 ft | 444 kts | 94° |
| 2026-05-07 19:53 | 51.13753 | 1.65061 | 23083 ft | 445 kts | 94° |
| 2026-05-07 19:53 | 51.13564 | 1.69988 | 23080 ft | 446 kts | 94° |
| 2026-05-07 19:53 | 51.13372 | 1.74920 | 23081 ft | 446 kts | 94° |
| 2026-05-07 19:53 | 51.13179 | 1.79851 | 23078 ft | 446 kts | 94° |
| 2026-05-07 19:54 | 51.12983 | 1.84779 | 23074 ft | 446 kts | 95° |
| 2026-05-07 19:54 | 51.12786 | 1.89706 | 23071 ft | 445 kts | 95° |
| 2026-05-07 19:54 | 51.12587 | 1.94625 | 23069 ft | 445 kts | 94° |
| 2026-05-07 19:54 | 51.12386 | 1.99535 | 23073 ft | 444 kts | 95° |
| 2026-05-07 19:55 | 51.12182 | 2.04447 | 23078 ft | 445 kts | 95° |
| 2026-05-07 19:55 | 51.11974 | 2.09416 | 23088 ft | 454 kts | 95° |
| 2026-05-07 19:55 | 51.11759 | 2.14476 | 23088 ft | 462 kts | 95° |
| 2026-05-07 19:55 | 51.11540 | 2.19613 | 23090 ft | 469 kts | 95° |
| 2026-05-07 19:56 | 51.11315 | 2.24830 | 23088 ft | 476 kts | 95° |
| 2026-05-07 19:56 | 51.11085 | 2.30120 | 23082 ft | 480 kts | 95° |
| 2026-05-07 19:56 | 51.10852 | 2.35423 | 23068 ft | 480 kts | 95° |
| 2026-05-07 19:56 | 51.10620 | 2.40653 | 23065 ft | 480 kts | 95° |
| 2026-05-07 19:57 | 51.10383 | 2.45951 | 23068 ft | 480 kts | 95° |
| 2026-05-07 19:57 | 51.10143 | 2.51239 | 23070 ft | 479 kts | 95° |
| 2026-05-07 19:57 | 51.09936 | 2.56486 | 23011 ft | 468 kts | 94° |
| 2026-05-07 19:57 | 51.09774 | 2.61593 | 22613 ft | 458 kts | 93° |
| 2026-05-07 19:58 | 51.09673 | 2.66608 | 22165 ft | 450 kts | 92° |
| 2026-05-07 19:58 | 51.09594 | 2.71540 | 21787 ft | 441 kts | 92° |
| 2026-05-07 19:58 | 51.09524 | 2.76349 | 21511 ft | 430 kts | 92° |
| 2026-05-07 19:58 | 51.09459 | 2.81066 | 21149 ft | 422 kts | 92° |
| 2026-05-07 19:59 | 51.09397 | 2.85707 | 20757 ft | 416 kts | 92° |
| 2026-05-07 19:59 | 51.09337 | 2.90281 | 20341 ft | 412 kts | 92° |
| 2026-05-07 19:59 | 51.09277 | 2.94796 | 20077 ft | 404 kts | 92° |
| 2026-05-07 19:59 | 51.09219 | 2.99181 | 19824 ft | 398 kts | 92° |
| 2026-05-07 20:00 | 51.09159 | 3.03607 | 19589 ft | 403 kts | 92° |
| 2026-05-07 20:00 | 51.09098 | 3.08121 | 19367 ft | 415 kts | 92° |
| 2026-05-07 20:00 | 51.09032 | 3.12776 | 19139 ft | 426 kts | 92° |
| 2026-05-07 20:00 | 51.08965 | 3.17502 | 18899 ft | 426 kts | 92° |
| 2026-05-07 20:01 | 51.08897 | 3.22189 | 18649 ft | 422 kts | 92° |
| 2026-05-07 20:01 | 51.08829 | 3.26828 | 18404 ft | 418 kts | 92° |
| 2026-05-07 20:01 | 51.08760 | 3.31445 | 18130 ft | 416 kts | 92° |
| 2026-05-07 20:01 | 51.08691 | 3.36030 | 17856 ft | 413 kts | 92° |
| 2026-05-07 20:02 | 51.08645 | 3.39053 | 17677 ft | 412 kts | 92° |
| 2026-05-07 20:02 | 51.08554 | 3.45132 | 17316 ft | 410 kts | 92° |
| 2026-05-07 20:02 | 51.08485 | 3.49658 | 17039 ft | 409 kts | 92° |
| 2026-05-07 20:02 | 51.08418 | 3.54135 | 16648 ft | 410 kts | 92° |
| 2026-05-07 20:03 | 51.08350 | 3.58678 | 16267 ft | 411 kts | 92° |
| 2026-05-07 20:03 | 51.08305 | 3.61676 | 16015 ft | 407 kts | 92° |
| 2026-05-07 20:03 | 51.08217 | 3.67633 | 15489 ft | 399 kts | 92° |
| 2026-05-07 20:03 | 51.08153 | 3.72026 | 15121 ft | 396 kts | 92° |
| 2026-05-07 20:04 | 51.08090 | 3.76386 | 14753 ft | 394 kts | 92° |
| 2026-05-07 20:04 | 51.08028 | 3.80724 | 14380 ft | 389 kts | 92° |
| 2026-05-07 20:04 | 51.07969 | 3.84957 | 13997 ft | 375 kts | 92° |
| 2026-05-07 20:04 | 51.07915 | 3.89025 | 13594 ft | 362 kts | 92° |
| 2026-05-07 20:05 | 51.07863 | 3.92954 | 13183 ft | 350 kts | 92° |
| 2026-05-07 20:05 | 51.07811 | 3.96769 | 12777 ft | 339 kts | 92° |
| 2026-05-07 20:05 | 51.07760 | 4.00469 | 12381 ft | 330 kts | 92° |
| 2026-05-07 20:05 | 51.07710 | 4.04025 | 11994 ft | 322 kts | 92° |
| 2026-05-07 20:06 | 51.07658 | 4.07539 | 11611 ft | 315 kts | 92° |
| 2026-05-07 20:06 | 51.07605 | 4.10982 | 11227 ft | 308 kts | 92° |
| 2026-05-07 20:06 | 51.07551 | 4.14351 | 10852 ft | 302 kts | 92° |
| 2026-05-07 20:06 | 51.07495 | 4.17654 | 10479 ft | 296 kts | 92° |
| 2026-05-07 20:07 | 51.07438 | 4.20923 | 10127 ft | 296 kts | 92° |
| 2026-05-07 20:07 | 51.07378 | 4.24197 | 9751 ft | 297 kts | 92° |
| 2026-05-07 20:07 | 51.07315 | 4.27483 | 9358 ft | 298 kts | 92° |
| 2026-05-07 20:07 | 51.07252 | 4.30776 | 8969 ft | 298 kts | 92° |
| 2026-05-07 20:08 | 51.07189 | 4.34071 | 8651 ft | 296 kts | 92° |
| 2026-05-07 20:08 | 51.07127 | 4.37323 | 8388 ft | 293 kts | 92° |
| 2026-05-07 20:08 | 51.07087 | 4.39461 | 8216 ft | 290 kts | 92° |
| 2026-05-07 20:08 | 51.07008 | 4.43639 | 8026 ft | 281 kts | 92° |
| 2026-05-07 20:09 | 51.06951 | 4.46726 | 7757 ft | 278 kts | 92° |
| 2026-05-07 20:09 | 51.06893 | 4.49797 | 7477 ft | 277 kts | 92° |
| 2026-05-07 20:09 | 51.06836 | 4.52857 | 7153 ft | 277 kts | 92° |
| 2026-05-07 20:10 | 51.06742 | 4.57960 | 6578 ft | 273 kts | 92° |
| 2026-05-07 20:10 | 51.06687 | 4.60920 | 6219 ft | 270 kts | 92° |
| 2026-05-07 20:10 | 51.06631 | 4.63893 | 5853 ft | 268 kts | 92° |
| 2026-05-07 20:10 | 51.06573 | 4.66834 | 5489 ft | 265 kts | 92° |
| 2026-05-07 20:11 | 51.06514 | 4.69730 | 5161 ft | 259 kts | 92° |
| 2026-05-07 20:11 | 51.06452 | 4.72545 | 4909 ft | 250 kts | 92° |
| 2026-05-07 20:11 | 51.06368 | 4.76103 | 4598 ft | 235 kts | 92° |
| 2026-05-07 20:11 | 51.06325 | 4.77837 | 4429 ft | 230 kts | 92° |
| 2026-05-07 20:12 | 51.06261 | 4.80340 | 4168 ft | 225 kts | 92° |
| 2026-05-07 20:12 | 51.06196 | 4.82841 | 3772 ft | 227 kts | 92° |
| 2026-05-07 20:12 | 51.06103 | 4.85337 | 3444 ft | 224 kts | 99° |
| 2026-05-07 20:12 | 51.05467 | 4.87497 | 3160 ft | 220 kts | 133° |
| 2026-05-07 20:13 | 51.04161 | 4.88685 | 3040 ft | 219 kts | 168° |
| 2026-05-07 20:13 | 51.02639 | 4.88464 | 3012 ft | 227 kts | 202° |
| 2026-05-07 20:13 | 51.01341 | 4.87019 | 3020 ft | 232 kts | 221° |
| 2026-05-07 20:13 | 51.00147 | 4.85281 | 3011 ft | 233 kts | 222° |
| 2026-05-07 20:14 | 50.98966 | 4.83528 | 2993 ft | 232 kts | 222° |
| 2026-05-07 20:14 | 50.97794 | 4.81778 | 2993 ft | 231 kts | 222° |
| 2026-05-07 20:14 | 50.96628 | 4.80034 | 2993 ft | 230 kts | 223° |
| 2026-05-07 20:14 | 50.95720 | 4.77985 | 2983 ft | 227 kts | 252° |
| 2026-05-07 20:15 | 50.95363 | 4.75640 | 2987 ft | 211 kts | 251° |
| 2026-05-07 20:15 | 50.94852 | 4.73564 | 2954 ft | 196 kts | 248° |
| 2026-05-07 20:15 | 50.94362 | 4.71593 | 2728 ft | 189 kts | 249° |
| 2026-05-07 20:15 | 50.93903 | 4.69645 | 2490 ft | 189 kts | 249° |
| 2026-05-07 20:16 | 50.93446 | 4.67680 | 2232 ft | 190 kts | 249° |
| 2026-05-07 20:16 | 50.92996 | 4.65740 | 1972 ft | 189 kts | 249° |
| 2026-05-07 20:16 | 50.92553 | 4.63826 | 1713 ft | 180 kts | 249° |
| 2026-05-07 20:16 | 50.92142 | 4.62054 | 1474 ft | 165 kts | 249° |
| 2026-05-07 20:17 | 50.91751 | 4.60368 | 1268 ft | 164 kts | 250° |
| 2026-05-07 20:17 | 50.91355 | 4.58654 | 1040 ft | 167 kts | 250° |
| 2026-05-07 20:17 | 50.90957 | 4.56935 | 805 ft | 164 kts | 250° |
| 2026-05-07 20:17 | 50.90573 | 4.55271 | 580 ft | 158 kts | 250° |
| 2026-05-07 20:18 | 50.90202 | 4.53663 | 376 ft | 154 kts | 250° |
| 2026-05-07 20:18 | 50.89834 | 4.52075 | 156 ft | 152 kts | 249° |
| 2026-05-07 20:18 | 50.89534 | 4.50761 | 143 ft | 96 kts | 250° |
| 2026-05-07 20:18 | 50.89379 | 4.50097 | 147 ft | 34 kts | 252° |
| 2026-05-07 20:19 | 50.89339 | 4.49775 | 146 ft | 29 kts | 284° |
| 2026-05-07 20:19 | 50.89409 | 4.49591 | 144 ft | 16 kts | 306° |
| 2026-05-07 20:19 | 50.89414 | 4.49580 | 143 ft | 0 kts | 305° |
| 2026-05-07 20:20 | 50.89415 | 4.49579 | 143 ft | 1 kts | 305° |
| 2026-05-07 20:20 | 50.89418 | 4.49570 | 143 ft | 1 kts | 305° |
| 2026-05-07 20:20 | 50.89427 | 4.49551 | 143 ft | 4 kts | 305° |
| 2026-05-07 20:20 | 50.89472 | 4.49457 | 139 ft | 13 kts | 305° |
| 2026-05-07 20:21 | 50.89528 | 4.49341 | 139 ft | 13 kts | 307° |
| 2026-05-07 20:21 | 50.89595 | 4.49256 | 142 ft | 13 kts | 351° |
| 2026-05-07 20:21 | 50.89681 | 4.49277 | 142 ft | 12 kts | 14° |
| 2026-05-07 20:21 | 50.89764 | 4.49311 | 143 ft | 12 kts | 17° |
| 2026-05-07 20:22 | 50.89836 | 4.49343 | 143 ft | 0 kts | 10° |
| 2026-05-07 20:22 | 50.89862 | 4.49351 | 142 ft | 10 kts | 12° |
| 2026-05-07 20:22 | 50.89933 | 4.49380 | 142 ft | 10 kts | 19° |
| 2026-05-07 20:23 | 50.89996 | 4.49353 | 143 ft | 10 kts | 300° |
| 2026-05-07 20:23 | 50.90012 | 4.49246 | 142 ft | 10 kts | 308° |
| 2026-05-07 20:23 | 50.90073 | 4.49193 | 143 ft | 10 kts | 335° |
| 2026-05-07 20:23 | 50.90080 | 4.49188 | 143 ft | 0 kts | 335° |